Time;durP1;ratioP1;P1;durP2;ratioP2;P2;SDS_P1;SDS_P2;PMS_P1;PMS_P2;Temp;Humidity;BMP_temperature;BMP_pressure;BME280_temperature;BME280_humidity;BME280_pressure;Samples;Min_cycle;Max_cycle;Signal;HPM_P1;HPM_P2
2022/08/09 00:01:07;;;;;;;4.60;3.28;;;;;;;20.02;59.30;93694.50;5048326;28;20077;-59
2022/08/09 00:03:32;;;;;;;7.00;3.58;;;;;;;20.08;59.24;93697.69;5048421;28;20020;-58
2022/08/09 00:05:58;;;;;;;3.85;3.53;;;;;;;20.11;59.26;93690.88;5048683;28;20056;-58
2022/08/09 00:08:23;;;;;;;4.28;3.42;;;;;;;20.15;59.40;93689.06;5048372;28;20029;-58
2022/08/09 00:10:49;;;;;;;4.63;3.85;;;;;;;20.02;60.16;93700.13;5048249;28;20021;-58
2022/08/09 00:13:15;;;;;;;4.82;3.72;;;;;;;20.02;60.12;93700.84;5032505;28;20018;-58
2022/08/09 00:15:40;;;;;;;4.10;3.70;;;;;;;20.08;60.44;93692.09;5028583;28;20022;-57
2022/08/09 00:18:06;;;;;;;7.05;3.55;;;;;;;20.14;60.65;93695.28;5027670;28;20025;-55
2022/08/09 00:20:31;;;;;;;4.32;3.42;;;;;;;20.26;59.96;93687.66;5028282;28;20421;-57
2022/08/09 00:22:57;;;;;;;4.47;3.80;;;;;;;20.20;60.59;93693.63;5031292;28;20027;-51
2022/08/09 00:25:22;;;;;;;4.18;3.75;;;;;;;20.11;61.64;93688.06;5048008;28;20093;-50
2022/08/09 00:27:47;;;;;;;4.38;3.88;;;;;;;20.23;62.07;93692.38;5048393;28;20056;-51
2022/08/09 00:30:13;;;;;;;7.22;3.92;;;;;;;20.19;63.11;93700.53;5048290;28;20024;-49
2022/08/09 00:32:39;;;;;;;3.85;3.42;;;;;;;20.21;61.94;93691.53;5048207;28;20042;-50
2022/08/09 00:35:05;;;;;;;4.45;3.65;;;;;;;20.27;61.17;93686.31;5047695;28;20051;-48
2022/08/09 00:37:31;;;;;;;6.28;4.10;;;;;;;20.23;60.84;93667.16;5047747;28;20085;-49
2022/08/09 00:39:56;;;;;;;5.32;4.53;;;;;;;20.33;61.22;93686.69;5047881;28;20021;-49
2022/08/09 00:42:22;;;;;;;4.30;3.90;;;;;;;20.27;61.43;93678.63;5039356;28;20022;-49
2022/08/09 00:44:47;;;;;;;4.40;3.53;;;;;;;20.20;61.90;93679.59;5027779;28;20403;-53
2022/08/09 00:47:13;;;;;;;5.18;3.15;;;;;;;20.17;62.09;93675.16;5028132;28;20048;-52
2022/08/09 00:49:39;;;;;;;4.28;3.88;;;;;;;20.10;62.52;93675.38;5027783;28;20029;-51
2022/08/09 00:52:05;;;;;;;4.65;4.25;;;;;;;20.15;62.66;93675.03;5026997;28;20087;-53
2022/08/09 00:54:34;;;;;;;11.73;3.95;;;;;;;20.05;62.85;93666.03;5036899;28;20474;-48
2022/08/09 00:56:59;;;;;;;10.57;5.30;;;;;;;19.97;63.86;93676.69;5047644;28;20073;-47
2022/08/09 00:59:25;;;;;;;4.63;3.80;;;;;;;20.06;64.03;93673.06;5047914;28;20033;-48
2022/08/09 01:01:50;;;;;;;4.35;3.95;;;;;;;20.06;63.98;93672.34;5047873;28;20092;-51
2022/08/09 01:04:59;;;;;;;11.50;4.32;;;;;;;20.19;64.27;93675.28;5046614;28;20016;-53
2022/08/09 01:07:44;;;;;;;5.70;4.05;;;;;;;20.19;64.33;93675.28;5049816;28;20076;-46
2022/08/09 01:10:38;;;;;;;6.18;4.97;;;;;;;20.27;63.11;93681.41;5026459;28;20033;-47
2022/08/09 01:13:13;;;;;;;4.75;3.72;;;;;;;20.22;63.10;93674.13;5023930;28;20029;-48
2022/08/09 01:15:43;;;;;;;4.78;4.13;;;;;;;20.14;63.90;93678.47;5026531;28;20693;-55
2022/08/09 01:18:15;;;;;;;4.68;3.95;;;;;;;20.16;63.96;93667.38;5033354;28;20549;-58
2022/08/09 01:21:04;;;;;;;5.00;4.18;;;;;;;19.97;64.42;93670.34;5047591;28;20073;-55
2022/08/09 01:24:08;;;;;;;6.53;4.35;;;;;;;20.06;64.30;93663.94;5039973;28;20025;-54
2022/08/09 01:26:52;;;;;;;4.88;4.20;;;;;;;20.16;64.09;93670.19;5027302;28;20033;-54
2022/08/09 01:29:23;;;;;;;5.50;4.40;;;;;;;20.23;63.42;93663.63;5027166;28;20112;-54
2022/08/09 01:31:49;;;;;;;5.57;4.65;;;;;;;20.19;63.66;93666.88;5027451;28;20021;-53
2022/08/09 01:34:18;;;;;;;5.63;4.90;;;;;;;20.06;64.59;93661.13;5026101;28;20024;-57
2022/08/09 01:36:45;;;;;;;8.05;4.63;;;;;;;20.01;64.47;93668.53;5026062;28;20072;-58
2022/08/09 01:39:12;;;;;;;6.72;4.80;;;;;;;20.08;64.39;93666.84;5026029;28;20029;-58
2022/08/09 01:41:40;;;;;;;4.55;3.95;;;;;;;19.87;65.96;93670.47;5029168;28;20033;-57
2022/08/09 01:44:06;;;;;;;4.80;4.07;;;;;;;19.96;65.60;93666.84;5045784;28;20037;-52
2022/08/09 01:46:42;;;;;;;4.75;3.85;;;;;;;19.99;65.40;93674.03;5045694;28;20077;-57
2022/08/09 01:49:12;;;;;;;4.43;3.92;;;;;;;19.95;65.34;93678.66;5045663;28;20036;-58
2022/08/09 01:51:41;;;;;;;5.82;4.75;;;;;;;20.01;65.16;93674.16;5047293;28;20025;-57
2022/08/09 01:54:07;;;;;;;6.82;4.68;;;;;;;19.99;65.18;93685.22;5045905;28;20104;-58
2022/08/09 01:56:35;;;;;;;5.65;4.10;;;;;;;19.96;65.20;93678.06;5046786;28;20037;-53
2022/08/09 01:59:03;;;;;;;4.32;3.92;;;;;;;19.93;65.36;93675.72;5045505;28;20029;-58
2022/08/09 02:01:29;;;;;;;7.80;3.85;;;;;;;19.70;66.50;93673.59;5040333;28;20021;-58
2022/08/09 02:03:55;;;;;;;8.05;5.15;;;;;;;19.77;66.21;93667.03;5034824;28;20574;-57
2022/08/09 02:07:07;;;;;;;19.67;5.10;;;;;;;19.76;65.95;93670.44;5045433;28;20078;-51
2022/08/09 02:09:09;;;;;;;7.63;4.28;;;;;;;19.84;65.67;93668.88;5039661;28;20066;-55
2022/08/09 02:11:35;;;;;;;6.30;4.97;;;;;;;19.87;65.22;93670.47;5033559;28;20025;-58
2022/08/09 02:14:02;;;;;;;6.30;4.35;;;;;;;19.86;65.41;93669.00;5026899;28;20028;-59
2022/08/09 02:16:32;;;;;;;8.00;4.63;;;;;;;19.85;65.40;93664.75;5025824;28;20160;-59
2022/08/09 02:18:58;;;;;;;5.35;4.50;;;;;;;19.68;65.40;93645.44;5036894;28;20080;-59
2022/08/09 02:21:24;;;;;;;13.63;5.60;;;;;;;19.76;65.68;93665.56;5034235;28;20113;-58
2022/08/09 02:23:53;;;;;;;5.75;5.00;;;;;;;19.82;65.47;93662.41;5041666;28;20097;-60
2022/08/09 02:26:18;;;;;;;;;;;;;;;19.76;65.62;93662.03;5035708;28;20036;-61
2022/08/09 02:28:50;;;;;;;9.40;4.82;;;;;;;19.58;66.01;93665.13;5045869;28;19913;-60
2022/08/09 02:31:24;;;;;;;7.72;4.68;;;;;;;19.50;66.54;93658.28;5035489;28;20090;-59
2022/08/09 02:33:53;;;;;;;8.15;4.85;;;;;;;19.58;66.55;93662.34;5025569;28;20034;-60
2022/08/09 02:36:22;;;;;;;7.05;4.70;;;;;;;19.60;66.31;93662.47;5025327;28;20022;-58
2022/08/09 02:38:50;;;;;;;6.88;4.40;;;;;;;19.61;66.27;93655.53;5025603;28;20086;-58
2022/08/09 02:41:20;;;;;;;4.38;3.88;;;;;;;19.60;66.47;93665.25;5026870;28;20045;-57
2022/08/09 02:43:46;;;;;;;4.95;4.45;;;;;;;19.43;65.83;93659.22;5033141;28;20513;-57
2022/08/09 02:46:13;;;;;;;4.97;3.85;;;;;;;19.35;65.83;93659.44;5028859;28;20025;-57
2022/08/09 02:48:40;;;;;;;5.13;4.63;;;;;;;19.20;65.68;93668.22;5030040;28;20049;-58
2022/08/09 02:51:08;;;;;;;4.82;3.97;;;;;;;19.09;65.83;93649.31;5028485;28;20528;-57
2022/08/09 02:53:37;;;;;;;5.55;4.63;;;;;;;18.96;66.49;93643.50;5030691;27;20141;-57
2022/08/09 02:56:03;;;;;;;5.47;4.60;;;;;;;18.85;66.75;93661.69;5041429;28;20032;-58
2022/08/09 02:58:30;;;;;;;6.13;4.60;;;;;;;18.62;67.53;93665.06;5036340;28;20017;-57
2022/08/09 03:00:56;;;;;;;10.07;4.93;;;;;;;18.64;67.46;93667.25;5048304;28;20033;-58
2022/08/09 03:03:22;;;;;;;6.38;4.22;;;;;;;18.53;67.63;93667.91;5049658;28;20401;-57
2022/08/09 03:05:49;;;;;;;6.28;4.30;;;;;;;18.63;67.21;93665.78;5048547;28;20489;-56
2022/08/09 03:08:16;;;;;;;7.43;5.15;;;;;;;18.47;67.66;93656.31;5049594;28;20048;-58
2022/08/09 03:10:44;;;;;;;6.10;4.88;;;;;;;18.35;67.78;93645.00;5048340;28;20029;-56
2022/08/09 03:13:10;;;;;;;9.10;4.50;;;;;;;18.48;68.33;93654.97;5047826;28;20013;-55
2022/08/09 03:15:37;;;;;;;5.05;4.55;;;;;;;18.42;68.30;93651.72;5046803;28;20029;-49
2022/08/09 03:18:04;;;;;;;4.88;4.47;;;;;;;18.22;68.37;93655.94;5049354;28;20029;-51
2022/08/09 03:20:29;;;;;;;7.70;5.20;;;;;;;18.09;68.76;93648.78;5049131;28;20025;-58
2022/08/09 03:22:56;;;;;;;8.00;5.40;;;;;;;18.15;68.69;93651.97;5036310;28;20033;-55
2022/08/09 03:25:21;;;;;;;6.15;5.22;;;;;;;17.93;69.51;93653.25;5048070;28;20101;-48
2022/08/09 03:27:50;;;;;;;7.95;4.63;;;;;;;17.92;69.75;93655.31;5049321;28;20490;-52
2022/08/09 03:30:15;;;;;;;8.73;5.53;;;;;;;17.83;70.02;93655.31;5041948;28;20026;-53
2022/08/09 03:32:42;;;;;;;10.25;5.18;;;;;;;17.85;70.23;93661.03;5039103;28;20535;-51
2022/08/09 03:35:10;;;;;;;6.00;4.82;;;;;;;17.87;69.75;93664.72;5042936;28;20112;-54
2022/08/09 03:37:37;;;;;;;5.47;4.97;;;;;;;17.81;70.09;93655.16;5035744;28;20025;-59
2022/08/09 03:40:04;;;;;;;6.22;5.07;;;;;;;17.79;70.07;93655.03;5037134;28;20122;-58
2022/08/09 03:42:29;;;;;;;6.82;4.97;;;;;;;17.75;70.06;93657.53;5046022;28;20104;-59
2022/08/09 03:44:55;;;;;;;6.05;5.25;;;;;;;17.80;69.95;93656.50;5045643;28;20052;-57
2022/08/09 03:47:20;;;;;;;7.97;5.15;;;;;;;17.63;70.96;93660.19;5048962;28;20151;-59
2022/08/09 03:49:48;;;;;;;5.40;4.78;;;;;;;17.58;70.79;93664.03;5046815;28;20048;-51
2022/08/09 03:52:13;;;;;;;7.40;4.75;;;;;;;17.65;70.74;93657.53;5044091;28;20025;-51
2022/08/09 03:54:39;;;;;;;8.65;4.80;;;;;;;17.64;71.05;93669.31;5037811;28;20433;-54
2022/08/09 03:57:10;;;;;;;6.00;5.15;;;;;;;17.67;70.39;93665.34;5036981;28;20044;-53
2022/08/09 03:59:35;;;;;;;10.35;4.65;;;;;;;17.47;70.82;93661.81;5027669;28;20029;-54
2022/08/09 04:02:01;;;;;;;10.77;5.53;;;;;;;17.53;71.10;93667.13;5040418;28;20116;-54
2022/08/09 04:17:12;;;;;;;5.70;4.80;;;;;;;18.24;68.12;93670.03;5066862;27;20908;-58
2022/08/09 04:19:37;;;;;;;7.28;6.53;;;;;;;18.08;68.82;93669.66;5067194;28;20116;-59
2022/08/09 04:22:02;;;;;;;13.88;5.70;;;;;;;18.02;69.19;93675.56;5067337;28;20506;-59
2022/08/09 04:24:28;;;;;;;13.60;5.43;;;;;;;17.83;70.08;93667.22;5067235;28;20501;-59
2022/08/09 04:26:54;;;;;;;15.90;5.65;;;;;;;17.83;70.48;93667.22;5067348;28;20028;-58
2022/08/09 04:29:19;;;;;;;13.35;5.90;;;;;;;17.95;70.29;93665.28;5067403;28;20471;-59
2022/08/09 04:31:45;;;;;;;14.88;5.13;;;;;;;17.85;70.72;93675.00;5067128;28;20371;-59
2022/08/09 04:34:10;;;;;;;7.43;5.05;;;;;;;17.89;70.86;93666.91;5051344;28;20043;-58
2022/08/09 04:36:36;;;;;;;7.72;4.75;;;;;;;18.01;70.47;93671.31;5062157;28;20056;-59
2022/08/09 04:39:04;;;;;;;12.15;5.35;;;;;;;18.12;70.48;93667.91;5066806;28;20028;-60
2022/08/09 04:41:30;;;;;;;9.10;5.13;;;;;;;18.13;70.45;93672.13;5067554;28;20033;-56
2022/08/09 04:43:56;;;;;;;8.05;5.93;;;;;;;18.26;70.67;93673.72;5087039;28;20028;-57
2022/08/09 04:46:21;;;;;;;20.27;6.07;;;;;;;18.32;70.46;93670.63;5087237;28;20024;-58
2022/08/09 04:48:47;;;;;;;14.75;6.50;;;;;;;18.32;70.91;93671.31;5066642;28;20025;-58
2022/08/09 04:51:12;;;;;;;14.63;6.93;;;;;;;18.43;70.55;93670.69;5066979;28;20129;-57
2022/08/09 04:53:38;;;;;;;7.50;5.97;;;;;;;18.54;70.06;93670.09;5066574;28;20497;-61
2022/08/09 04:56:05;;;;;;;7.82;5.70;;;;;;;18.54;71.22;93669.34;5066474;28;20040;-60
2022/08/09 04:58:31;;;;;;;7.10;6.30;;;;;;;18.67;71.09;93672.38;5066549;28;20523;-61
2022/08/09 05:00:56;;;;;;;8.60;6.35;;;;;;;18.70;70.49;93676.78;5048720;28;20031;-59
2022/08/09 05:03:22;;;;;;;9.30;5.82;;;;;;;18.77;70.24;93661.88;5065618;28;20111;-59
2022/08/09 05:05:48;;;;;;;6.20;5.53;;;;;;;18.86;70.91;93677.84;5066356;28;20053;-59
2022/08/09 05:08:14;;;;;;;6.85;5.03;;;;;;;18.90;70.36;93677.41;5066040;28;20082;-58
2022/08/09 05:10:40;;;;;;;8.18;5.00;;;;;;;19.02;70.48;93677.47;5066222;28;20024;-50
2022/08/09 05:13:06;;;;;;;11.18;5.65;;;;;;;19.14;70.42;93670.63;5065216;28;20500;-59
2022/08/09 05:15:31;;;;;;;10.43;5.00;;;;;;;19.15;70.49;93669.28;5064955;28;20115;-59
2022/08/09 05:17:56;;;;;;;5.75;4.85;;;;;;;19.33;70.36;93669.75;5052031;28;20020;-60
2022/08/09 05:20:24;;;;;;;9.00;5.50;;;;;;;19.40;69.70;93675.19;5051484;28;20017;-59
2022/08/09 05:22:52;;;;;;;8.90;5.45;;;;;;;19.50;69.39;93669.47;5050839;28;20433;-58
2022/08/09 05:25:21;;;;;;;6.15;4.90;;;;;;;19.59;69.26;93663.81;5048605;28;20456;-58
2022/08/09 05:27:47;;;;;;;;;;;;;;;19.78;68.62;93673.34;5049456;28;20615;-58
2022/08/09 05:30:13;;;;;;;6.70;4.38;;;;;;;19.88;67.32;93679.63;5051313;28;19952;-56
2022/08/09 05:32:38;;;;;;;11.85;5.30;;;;;;;20.01;66.89;93687.44;5051667;28;20025;-59
2022/08/09 05:35:04;;;;;;;6.25;4.28;;;;;;;20.09;66.57;93685.88;5051164;28;20027;-59
2022/08/09 05:37:30;;;;;;;22.13;5.32;;;;;;;20.23;66.51;93680.44;5050683;28;20391;-56
2022/08/09 05:39:57;;;;;;;5.38;4.80;;;;;;;20.37;65.62;93679.25;5049785;28;20074;-54
2022/08/09 05:42:24;;;;;;;9.45;5.38;;;;;;;20.43;65.11;93670.47;5050522;28;20024;-54
2022/08/09 05:44:50;;;;;;;5.35;4.78;;;;;;;20.56;64.39;93678.28;5048915;28;20456;-55
2022/08/09 05:47:15;;;;;;;4.85;4.35;;;;;;;20.74;63.67;93670.25;5051341;28;20032;-52
2022/08/09 05:49:41;;;;;;;4.63;3.65;;;;;;;20.84;63.80;93671.56;5051112;28;20510;-57
2022/08/09 05:52:07;;;;;;;20.08;5.15;;;;;;;20.91;63.57;93667.78;5051050;28;20414;-60
2022/08/09 05:54:33;;;;;;;5.53;4.20;;;;;;;20.96;63.01;93672.28;5050504;28;20023;-60
2022/08/09 05:56:59;;;;;;;10.10;4.78;;;;;;;21.07;63.48;93674.38;5050176;28;20043;-61
2022/08/09 05:59:24;;;;;;;8.82;4.75;;;;;;;21.19;62.52;93673.63;5050761;28;20017;-60
2022/08/09 06:01:50;;;;;;;9.20;4.22;;;;;;;21.28;62.01;93681.91;5050456;28;20090;-59
2022/08/09 06:04:15;;;;;;;5.68;4.28;;;;;;;21.30;62.61;93681.28;5050143;28;20397;-59
2022/08/09 06:06:41;;;;;;;6.82;4.28;;;;;;;21.43;62.63;93681.38;5048725;28;21607;-57
2022/08/09 06:09:06;;;;;;;7.60;4.75;;;;;;;21.51;61.70;93676.22;5049584;28;20055;-59
2022/08/09 06:11:32;;;;;;;9.73;4.63;;;;;;;21.63;61.64;93674.13;5047871;28;20036;-60
2022/08/09 06:13:58;;;;;;;5.50;4.03;;;;;;;21.63;61.58;93674.13;5046359;28;20041;-59
2022/08/09 06:16:23;;;;;;;14.30;4.20;;;;;;;21.81;59.12;93672.31;5050411;28;20131;-59
2022/08/09 06:18:49;;;;;;;4.82;3.83;;;;;;;21.92;60.37;93673.63;5048317;28;20417;-61
2022/08/09 06:21:15;;;;;;;7.32;4.05;;;;;;;21.96;59.01;93671.03;5046786;28;20037;-60
2022/08/09 06:23:40;;;;;;;7.70;4.10;;;;;;;21.98;59.30;93676.78;5047450;28;20569;-52
2022/08/09 06:26:06;;;;;;;40.97;6.47;;;;;;;22.11;60.37;93666.94;5042804;28;20033;-60
2022/08/09 06:28:31;;;;;;;9.00;3.88;;;;;;;22.10;57.87;93677.44;5049383;28;20029;-60
2022/08/09 06:30:57;;;;;;;3.70;3.40;;;;;;;22.28;56.73;93677.72;5050539;28;20493;-56
2022/08/09 06:33:22;;;;;;;4.75;3.25;;;;;;;22.19;55.77;93668.13;5048396;28;20025;-58
2022/08/09 06:35:47;;;;;;;6.85;3.97;;;;;;;22.34;57.63;93672.41;5048448;28;20105;-51
2022/08/09 06:38:13;;;;;;;4.90;3.50;;;;;;;22.45;56.43;93680.78;5047812;28;20090;-51
2022/08/09 06:40:39;;;;;;;4.82;3.03;;;;;;;22.52;51.94;93673.41;5049170;28;20021;-56
2022/08/09 06:43:04;;;;;;;4.18;3.40;;;;;;;22.71;53.01;93663.84;5047057;28;20082;-59
2022/08/09 06:45:30;;;;;;;5.68;3.20;;;;;;;22.94;50.25;93661.56;5044135;28;20021;-58
2022/08/09 06:47:55;;;;;;;4.43;3.10;;;;;;;23.12;49.49;93665.34;5049211;28;20021;-53
2022/08/09 06:50:21;;;;;;;4.45;2.78;;;;;;;23.22;47.77;93665.09;5048907;28;20464;-56
2022/08/09 06:52:46;;;;;;;5.72;2.92;;;;;;;23.39;47.11;93663.88;5049086;28;20059;-54
2022/08/09 06:55:13;;;;;;;3.15;2.72;;;;;;;23.48;45.54;93660.06;5046829;28;20036;-60
2022/08/09 06:57:39;;;;;;;3.42;2.80;;;;;;;23.63;45.41;93651.69;5041989;28;20029;-60
2022/08/09 07:00:05;;;;;;;5.00;2.65;;;;;;;23.74;45.64;93658.53;5031920;28;20541;-58
2022/08/09 07:02:30;;;;;;;5.10;2.80;;;;;;;23.74;45.57;93656.47;5037372;28;20021;-58
2022/08/09 07:04:56;;;;;;;4.90;3.10;;;;;;;23.83;45.01;93654.75;5050891;28;20025;-59
2022/08/09 07:07:21;;;;;;;4.45;3.05;;;;;;;23.96;45.22;93656.81;5050807;28;20029;-57
2022/08/09 07:09:47;;;;;;;4.57;2.85;;;;;;;23.98;43.37;93656.91;5050845;28;20029;-60
2022/08/09 07:12:12;;;;;;;4.65;2.92;;;;;;;24.08;45.35;93649.66;5046553;28;20033;-57
2022/08/09 07:14:38;;;;;;;4.20;2.63;;;;;;;24.16;43.14;93659.88;5037813;28;20517;-59
2022/08/09 07:17:04;;;;;;;4.60;2.20;;;;;;;24.27;42.05;93647.69;5044073;28;20617;-59
2022/08/09 07:19:29;;;;;;;3.78;2.33;;;;;;;24.35;41.14;93645.25;5033709;28;20021;-60
2022/08/09 07:21:55;;;;;;;2.42;2.22;;;;;;;24.46;41.41;93656.38;5030787;28;20506;-61
2022/08/09 07:24:21;;;;;;;4.90;2.30;;;;;;;24.54;41.45;93642.63;5044783;28;20701;-59
2022/08/09 07:26:46;;;;;;;3.05;2.05;;;;;;;24.78;40.01;93654.31;5050804;28;20085;-59
2022/08/09 07:29:11;;;;;;;2.67;2.47;;;;;;;24.99;40.86;93656.69;5050003;28;20681;-61
2022/08/09 07:31:37;;;;;;;4.22;2.95;;;;;;;25.18;39.42;93647.63;5050111;28;20028;-60
2022/08/09 07:34:03;;;;;;;5.70;2.08;;;;;;;25.47;38.28;93646.72;5050357;28;20107;-62
2022/08/09 07:36:31;;;;;;;4.05;2.38;;;;;;;25.86;37.74;93646.94;5050321;28;20016;-59
2022/08/09 07:38:58;;;;;;;2.70;1.93;;;;;;;26.39;36.03;93651.88;5050299;28;20138;-61
2022/08/09 07:41:23;;;;;;;6.57;2.28;;;;;;;27.15;35.77;93651.19;5049693;28;20654;-59
2022/08/09 07:43:49;;;;;;;5.47;2.20;;;;;;;27.86;33.65;93657.19;5044889;28;20082;-59
2022/08/09 07:46:15;;;;;;;2.28;1.90;;;;;;;28.47;33.55;93655.66;5049962;28;20052;-58
2022/08/09 07:48:40;;;;;;;2.78;2.00;;;;;;;28.97;33.18;93658.59;5045376;28;20106;-61
2022/08/09 07:51:06;;;;;;;2.30;2.10;;;;;;;29.36;31.89;93657.56;5049452;28;20420;-59
2022/08/09 07:53:32;;;;;;;7.70;5.15;;;;;;;29.87;30.28;93654.69;5048900;28;20134;-60
2022/08/09 07:55:58;;;;;;;8.10;3.45;;;;;;;30.28;29.35;93656.38;5046355;28;20111;-60
2022/08/09 07:58:23;;;;;;;10.38;2.25;;;;;;;30.58;28.87;93648.59;5048997;28;20108;-59
2022/08/09 08:00:49;;;;;;;4.05;2.13;;;;;;;30.90;28.54;93655.03;5048708;28;20809;-59
2022/08/09 08:03:14;;;;;;;2.78;1.95;;;;;;;31.15;28.34;93659.09;5048602;28;20064;-56
2022/08/09 08:05:39;;;;;;;7.78;2.60;;;;;;;31.19;26.85;93642.06;5049845;28;20029;-59
2022/08/09 08:08:05;;;;;;;4.57;2.33;;;;;;;31.53;26.95;93662.03;5050160;28;20025;-59
2022/08/09 08:10:31;;;;;;;5.47;2.75;;;;;;;31.41;27.43;93656.81;5050334;28;20029;-59
2022/08/09 08:12:57;;;;;;;6.15;2.97;;;;;;;31.56;26.14;93655.66;5049587;28;20522;-60
2022/08/09 08:15:22;;;;;;;5.63;2.40;;;;;;;31.57;26.62;93657.13;5048343;28;20122;-59
2022/08/09 08:17:52;;;;;;;4.47;1.80;;;;;;;31.68;25.66;93653.06;5047214;28;20041;-62
2022/08/09 08:20:18;;;;;;;4.55;2.40;;;;;;;31.58;27.46;93652.84;5046494;28;20036;-57
2022/08/09 08:22:44;;;;;;;2.83;2.10;;;;;;;31.98;26.09;93645.06;5048517;28;20104;-59
2022/08/09 08:25:10;;;;;;;7.30;3.75;;;;;;;32.21;25.78;93660.41;5041175;28;20112;-58
2022/08/09 08:27:35;;;;;;;4.68;2.38;;;;;;;32.38;25.14;93653.53;5048582;28;20467;-58
2022/08/09 08:30:01;;;;;;;6.97;2.38;;;;;;;32.27;26.83;93646.22;5048791;28;20025;-59
2022/08/09 08:32:27;;;;;;;17.67;3.00;;;;;;;32.48;25.61;93650.88;5049705;28;20029;-62
2022/08/09 08:34:53;;;;;;;3.58;2.38;;;;;;;33.00;25.49;93644.50;5049820;28;20032;-61
2022/08/09 08:37:19;;;;;;;2.85;2.13;;;;;;;32.87;25.45;93641.44;5049740;28;20032;-58
2022/08/09 08:39:45;;;;;;;3.13;2.00;;;;;;;32.90;24.51;93651.50;5049482;28;20031;-60
2022/08/09 08:42:11;;;;;;;3.00;2.00;;;;;;;32.80;26.53;93650.63;5049679;28;20025;-59
2022/08/09 08:44:37;;;;;;;2.92;2.03;;;;;;;32.87;24.62;93647.16;5049603;28;20039;-62
2022/08/09 08:47:03;;;;;;;4.03;2.50;;;;;;;32.76;23.36;93656.28;5049673;28;20104;-61
2022/08/09 08:49:31;;;;;;;3.58;2.15;;;;;;;32.65;25.53;93646.84;5049656;28;20035;-60
2022/08/09 08:51:57;;;;;;;2.72;2.22;;;;;;;32.54;24.03;93645.25;5050923;28;20051;-60
2022/08/09 08:54:22;;;;;;;3.15;1.73;;;;;;;32.48;23.88;93650.88;5053690;28;20036;-61
2022/08/09 08:56:48;;;;;;;3.05;1.58;;;;;;;32.56;23.29;93645.28;5033684;28;20552;-60
2022/08/09 08:59:14;;;;;;;2.08;1.88;;;;;;;32.73;24.05;93641.25;5033680;28;20033;-59
2022/08/09 09:01:42;;;;;;;2.05;1.85;;;;;;;32.74;24.61;93641.97;5033389;28;20446;-60
2022/08/09 09:04:09;;;;;;;2.65;1.98;;;;;;;32.77;25.16;93640.56;5033606;28;20040;-58
2022/08/09 09:06:40;;;;;;;19.55;2.60;;;;;;;32.39;25.04;93637.13;5033141;28;20495;-59
2022/08/09 09:09:06;;;;;;;3.75;2.30;;;;;;;32.38;25.97;93639.25;5034275;28;20029;-61
2022/08/09 09:11:34;;;;;;;2.70;2.00;;;;;;;32.72;25.24;93641.94;5035871;28;20037;-62
2022/08/09 09:14:01;;;;;;;2.45;2.25;;;;;;;32.79;25.03;93637.75;5052491;28;20067;-60
2022/08/09 09:16:31;;;;;;;3.20;1.83;;;;;;;32.56;24.98;93630.25;5051134;28;20064;-59
2022/08/09 09:18:56;;;;;;;2.95;2.03;;;;;;;32.50;24.43;93638.75;5037842;28;20028;-60
2022/08/09 09:21:22;;;;;;;3.15;1.63;;;;;;;32.50;24.47;93642.34;5053108;28;20031;-60
2022/08/09 09:23:48;;;;;;;2.88;1.83;;;;;;;32.51;24.17;93640.91;5052723;28;20074;-59
2022/08/09 09:26:14;;;;;;;6.07;4.00;;;;;;;32.80;24.61;93644.91;5051904;28;20028;-59
2022/08/09 09:28:46;;;;;;;3.20;2.17;;;;;;;32.92;24.03;93640.06;5053036;28;20044;-61
2022/08/09 09:31:13;;;;;;;5.07;3.63;;;;;;;33.04;23.97;93644.53;5034041;28;20104;-61
2022/08/09 09:33:39;;;;;;;3.33;2.08;;;;;;;33.31;23.56;93640.59;5039429;28;20110;-59
2022/08/09 09:36:06;;;;;;;3.55;2.72;;;;;;;33.50;25.38;93650.84;5052458;28;20058;-59
2022/08/09 09:38:46;;;;;;;10.90;2.97;;;;;;;33.76;23.49;93641.84;5052913;28;20037;-60
2022/08/09 09:41:26;;;;;;;3.85;1.80;;;;;;;33.91;25.13;93638.41;5048817;28;20558;-60
2022/08/09 09:43:56;;;;;;;2.05;1.83;;;;;;;34.26;23.45;93645.91;5038210;28;20455;-60
2022/08/09 09:46:29;;;;;;;5.13;2.13;;;;;;;34.38;23.55;93651.03;5050870;28;20555;-59
2022/08/09 09:48:56;;;;;;;2.63;2.30;;;;;;;34.90;23.57;93642.09;5050086;28;20025;-59
2022/08/09 09:51:22;;;;;;;4.30;2.05;;;;;;;34.76;22.63;93633.41;5048235;28;20106;-61
2022/08/09 09:54:11;;;;;;;3.75;2.00;;;;;;;33.55;22.96;93638.75;5039472;28;20429;-59
2022/08/09 09:56:42;;;;;;;5.50;1.83;;;;;;;32.41;24.85;93637.16;5044223;28;20482;-60
2022/08/09 09:59:08;;;;;;;4.13;2.25;;;;;;;31.61;26.26;93642.19;5052416;28;20079;-60
2022/08/09 10:01:35;;;;;;;4.28;2.25;;;;;;;31.11;27.93;93636.19;5045964;28;20160;-60
2022/08/09 10:04:00;;;;;;;2.97;2.50;;;;;;;30.67;29.37;93639.53;5040819;28;20502;-59
2022/08/09 10:06:28;;;;;;;7.00;2.38;;;;;;;30.83;26.47;93622.06;5034309;28;20065;-60
2022/08/09 10:09:00;;;;;;;2.00;1.80;;;;;;;31.41;25.25;93625.41;5072008;28;20107;-60
2022/08/09 10:11:28;;;;;;;3.30;2.22;;;;;;;31.90;26.53;93629.88;5071994;28;20025;-61
2022/08/09 10:13:53;;;;;;;3.17;2.30;;;;;;;32.65;27.39;93623.25;5059780;28;20052;-61
2022/08/09 10:16:27;;;;;;;3.33;2.08;;;;;;;33.38;25.11;93622.06;5022446;28;20495;-59
2022/08/09 10:18:54;;;;;;;11.70;2.72;;;;;;;32.99;24.20;93628.69;5031987;28;20033;-61
2022/08/09 10:21:20;;;;;;;2.15;1.85;;;;;;;32.69;24.23;93626.16;5051664;28;20020;-60
2022/08/09 10:23:46;;;;;;;2.20;1.80;;;;;;;32.61;22.82;93626.06;5050945;28;20036;-61
2022/08/09 10:26:12;;;;;;;3.78;1.63;;;;;;;32.35;24.78;93625.63;5051964;28;20100;-60
2022/08/09 10:28:40;;;;;;;3.33;2.20;;;;;;;31.74;26.43;93635.28;5051667;28;20028;-60
2022/08/09 10:31:07;;;;;;;6.25;2.25;;;;;;;31.03;27.45;93631.06;5051584;28;20025;-59
2022/08/09 10:33:34;;;;;;;5.32;1.95;;;;;;;30.59;26.23;93632.94;5047330;28;20068;-60
2022/08/09 10:36:00;;;;;;;2.80;1.73;;;;;;;30.69;26.85;93625.31;5052186;28;20059;-60
2022/08/09 10:38:25;;;;;;;3.47;1.48;;;;;;;30.78;25.72;93634.78;5051944;28;20110;-59
2022/08/09 10:40:51;;;;;;;5.07;1.92;;;;;;;30.20;26.47;93645.53;5051609;28;20025;-60
2022/08/09 10:43:17;;;;;;;2.88;1.95;;;;;;;29.75;25.78;93638.03;5051258;28;20035;-59
2022/08/09 10:45:43;;;;;;;2.55;1.70;;;;;;;30.12;25.67;93633.97;5051478;28;20037;-61
2022/08/09 10:48:23;;;;;;;4.40;2.10;;;;;;;29.98;25.48;93634.34;5051549;28;20036;-58
2022/08/09 10:51:08;;;;;;;4.28;1.88;;;;;;;29.80;26.00;93631.03;5051270;28;20027;-59
2022/08/09 10:53:55;;;;;;;3.38;2.45;;;;;;;30.31;26.51;93626.59;5051231;28;20101;-59
2022/08/09 10:56:26;;;;;;;2.45;2.13;;;;;;;30.48;26.28;93629.13;5051049;28;20513;-60
2022/08/09 10:58:54;;;;;;;8.55;3.40;;;;;;;30.19;26.34;93629.84;5051438;28;20029;-58
2022/08/09 11:01:32;;;;;;;4.95;2.15;;;;;;;30.45;27.34;93624.06;5046632;28;20494;-60
2022/08/09 11:04:19;;;;;;;2.40;2.08;;;;;;;30.82;26.96;93628.44;5040060;28;20056;-61
2022/08/09 11:06:51;;;;;;;2.95;1.90;;;;;;;31.26;26.43;93627.25;5030911;28;20022;-60
2022/08/09 11:09:18;;;;;;;3.10;2.05;;;;;;;31.62;26.68;93623.66;5013203;28;20037;-61
2022/08/09 11:11:53;;;;;;;4.53;2.08;;;;;;;32.02;25.57;93621.53;5013626;28;20121;-60
2022/08/09 11:14:34;;;;;;;6.00;2.05;;;;;;;32.11;24.79;93611.69;5042849;28;20040;-60
2022/08/09 11:17:25;;;;;;;4.55;1.75;;;;;;;32.70;23.50;93616.19;5050617;28;20575;-61
2022/08/09 11:20:08;;;;;;;2.40;1.85;;;;;;;32.80;23.79;93622.03;5050261;28;20115;-60
2022/08/09 11:22:39;;;;;;;5.65;2.25;;;;;;;32.65;23.54;93618.25;5050653;28;20056;-58
2022/08/09 11:25:34;;;;;;;6.10;1.90;;;;;;;32.79;23.27;93618.44;5043903;28;20063;-59
2022/08/09 11:28:00;;;;;;;3.70;1.77;;;;;;;32.68;21.60;93619.72;5049395;28;20036;-60
2022/08/09 11:30:26;;;;;;;1.98;1.52;;;;;;;32.68;22.69;93621.88;5050415;28;20484;-59
2022/08/09 11:33:07;;;;;;;2.80;1.65;;;;;;;32.66;23.47;93613.97;5050736;28;20033;-59
2022/08/09 11:35:55;;;;;;;2.92;1.73;;;;;;;32.65;22.30;93612.53;5033049;28;20060;-59
2022/08/09 11:38:24;;;;;;;2.35;1.90;;;;;;;32.69;23.97;93604.00;5045640;28;20061;-59
2022/08/09 11:40:51;;;;;;;2.70;1.90;;;;;;;32.68;21.80;93608.28;5038033;28;20037;-62
2022/08/09 11:43:38;;;;;;;4.35;1.80;;;;;;;32.44;23.45;93610.06;5046240;28;20025;-58
2022/08/09 11:46:04;;;;;;;2.25;2.05;;;;;;;32.45;23.09;93600.78;5036976;28;20037;-58
2022/08/09 11:48:32;;;;;;;1.77;1.65;;;;;;;32.15;23.97;93586.78;5049955;28;20017;-59
2022/08/09 11:50:58;;;;;;;3.73;2.00;;;;;;;31.68;23.39;93598.09;5050503;28;20043;-62